Selected Arizona METAR Reports


Metar stations are listed by distance from this station - near to far. The 'official' reporting station for the Greater Phoenix area is KPHX - Phoenix/Sky Harbor.

KDVT - Phoenix/Deer Valley, Arizona, USA
Distance from station: NW 4mi, 7km
Updated: Sat 17 Aug 2019 2053 MST

 
Barometer: 29.75 inHg , 1007.5 hPa
2019/08/18 03:53 KDVT 180353Z A2975 RMK AO2 SLPNO $
KSDL - Scottsdale, Arizona, USA
Distance from station: ESE 6mi, 9km
Updated: Sat 17 Aug 2019 2053 MST
Clear
Clear
 Wind from calm
Wind: Calm
Temperature: 99°F , 37°C
Dew Point: 46°F , 8°C
Humidity: 17%
Barometer: 29.76 inHg , 1007.8 hPa
Clouds: Clear
Visibility: 10 miles , 16 km
2019/08/18 03:53 KSDL 180353Z 00000KT 10SM CLR 37/08 A2976 RMK AO2 SLP046 T03720078
 
KPHX - Phoenix/Sky Harbor, Arizona, USA
Distance from station: S 15mi, 24km
Updated: Sat 17 Aug 2019 2051 MST
Partly cloudy
Partly cloudy
 Wind from W
Wind: W 13 mph , 20 km/h
Temperature: 102°F , 39°C
Dew Point: 45°F , 7°C
Humidity: 14%
Barometer: 29.71 inHg , 1006.1 hPa
Clouds: Partly cloudy
Visibility: 10 miles , 16 km
Cloud details: Few Clouds 20000 ft
Partly cloudy 28000 ft
2019/08/18 03:51 KPHX 180351Z 27011KT 10SM FEW200 SCT280 39/07 A2971 RMK AO2 SLP037 T03940072
KGEU - Glendale, Arizona, USA
Distance from station: WSW 19mi, 30km
Updated: Sat 17 Aug 2019 1850 MST
NOT Current
Few Clouds
Few Clouds
 Wind from SW
Wind: SW 8 mph , 13 km/h
Temperature: 106°F , 41°C
Dew Point: 45°F , 7°C
Humidity: 13%
Barometer: 29.69 inHg , 1005.4 hPa
Clouds: Few Clouds
Visibility: 10 miles , 16 km
Cloud details: Few Clouds 22000 ft
2019/08/18 01:50 KGEU 180150Z 22007KT 10SM FEW220 41/07 A2969 RMK LAST
 
KFFZ - Mesa/Falcon Field, Arizona, USA
Distance from station: SE 21mi, 33km
Updated: Sat 17 Aug 2019 2054 MST
Clear
Clear
 Wind from calm
Wind: Calm
Temperature: 99°F , 37°C
Dew Point: 48°F , 9°C
Humidity: 18%
Barometer: 29.74 inHg , 1007.1 hPa
Clouds: Clear
Visibility: 10 miles , 16 km
2019/08/18 03:54 KFFZ 180354Z AUTO 00000KT 10SM CLR 37/09 A2974 RMK AO2 SLP042 T03720094
KLUF - Luke AFB/Glendale, Arizona, USA
Distance from station: WSW 23mi, 36km
Updated: Sat 17 Aug 2019 2058 MST
Clear
Clear
 Wind from WSW
Wind: WSW 8 mph , 13 km/h
Temperature: 97°F , 36°C
Dew Point: 43°F , 6°C
Humidity: 16%
Barometer: 29.71 inHg , 1006.1 hPa
Clouds: Clear
Visibility: 10 miles , 16 km
2019/08/18 03:58 KLUF 180358Z AUTO 24007KT 10SM CLR 36/06 A2971 RMK AO2 SLP044 T03570060 $
 
KGYR - Goodyear Municipal, Arizona, USA
Distance from station: SW 26mi, 42km
Updated: Sat 17 Aug 2019 2047 MST
Mostly cloudy
Mostly cloudy
 Wind from SW
Wind: SW 6 mph , 9 km/h
Temperature: 97°F , 36°C
Dew Point: 48°F , 9°C
Humidity: 19%
Barometer: 29.71 inHg , 1006.1 hPa
Clouds: Mostly cloudy
Visibility: 10 miles , 16 km
Cloud details: Few Clouds 11000 ft
Mostly cloudy 25000 ft
2019/08/18 03:47 KGYR 180347Z 23005KT 10SM FEW110 BKN250 36/09 A2971 RMK LAST
KIWA - Chandler/Mesa, Arizona, USA
Distance from station: SE 32mi, 51km
Updated: Sat 17 Aug 2019 2050 MST
Few Clouds
Few Clouds
 Wind from NNW
Wind: NNW 7 mph , 11 km/h
Temperature: 99°F , 37°C
Dew Point: 48°F , 9°C
Humidity: 18%
Barometer: 29.75 inHg , 1007.5 hPa
Clouds: Few Clouds
Visibility: 10 miles , 16 km
Cloud details: Few Clouds 25000 ft
2019/08/18 03:50 KIWA 180350Z 33006KT 10SM FEW250 37/09 A2975
 
KBXK - Buckeye, Arizona, USA
Distance from station: WSW 42mi, 68km
Updated: Sat 17 Aug 2019 2135 MST
Clear
Clear
 Wind from SW
Wind: SW 9 mph , 15 km/h
Temperature: 91°F , 33°C
Dew Point: 48°F , 9°C
Humidity: 23%
Barometer: 29.74 inHg , 1007.1 hPa
Clouds: Clear
Visibility: 9 miles , 14 km
2019/08/18 04:35 KBXK 180435Z AUTO 22008KT 9SM CLR 33/09 A2974 RMK A01
KCGZ - Casa Grande, Arizona, USA
Distance from station: SSE 50mi, 81km
Updated: Sat 17 Aug 2019 2056 MST
Clear
Clear
 Wind from W
Wind: W 10 mph , 17 km/h
Temperature: 97°F , 36°C
Dew Point: 45°F , 7°C
Humidity: 17%
Barometer: 29.77 inHg , 1008.1 hPa
Clouds: Clear
Visibility: 10 miles , 16 km
2019/08/18 03:56 KCGZ 180356Z AUTO 27009KT 10SM CLR 36/07 A2977 RMK AO2 SLP061 T03560072
 
KPAN - Payson, Arizona, USA
Distance from station: NE 57mi, 91km
Updated: Sat 17 Aug 2019 2135 MST
Clear
Clear
 Wind from calm
Wind: Calm
Temperature: 75°F , 24°C
Dew Point: 34°F , 1°C
Humidity: 22%
Barometer: 30.11 inHg , 1019.6 hPa
Clouds: Clear
Visibility: 10 miles , 16 km
2019/08/18 04:35 KPAN 180435Z AUTO 00000KT 10SM CLR 24/01 A3011 RMK AO2
KGBN - Gila Bend (aaf), Arizona, USA
Distance from station: SW 68mi, 109km
Updated: Thu 20 Jul 2017 0757 MST
NOT Current
Partly cloudy
Partly cloudy
 Wind from calm
Wind: Calm
Temperature: 86°F , 30°C
Heat Index: 89°F , 32°C
Dew Point: 68°F , 20°C
Humidity: 55%
Barometer: 29.97 inHg , 1014.9 hPa
Clouds: Partly cloudy
Visibility: 10 miles , 16 km
Cloud details: Few Clouds 10000 ft
Partly cloudy 15000 ft
2017/07/20 14:57 KGBN 201457Z 00000KT 10SM FEW100 SCT150 30/20 A2997 RMK A02 NO SLP
 
KPRC - Prescott, Arizona, USA
Distance from station: NNW 73mi, 118km
Updated: Sat 17 Aug 2019 2053 MST
Clear
Clear
 Wind from S
Wind: S 7 mph , 11 km/h
Temperature: 75°F , 24°C
Dew Point: 43°F , 6°C
Humidity: 31%
Barometer: 30.07 inHg , 1018.3 hPa
Clouds: Clear
Visibility: 10 miles , 16 km
2019/08/18 03:53 KPRC 180353Z 19006KT 10SM CLR 24/06 A3007 RMK AO2 SLP089 T02440056
KSEZ - Sedona, Arizona, USA
Distance from station: N 84mi, 135km
Updated: Sat 17 Aug 2019 2135 MST
Clear
Clear
 Wind from SE
Wind: SE 7 mph , 11 km/h
Temperature: 81°F , 27°C
Dew Point: 37°F , 3°C
Humidity: 21%
Barometer: 30.06 inHg , 1017.9 hPa
Clouds: Clear
Visibility: 10 miles , 16 km
2019/08/18 04:35 KSEZ 180435Z AUTO 14006KT 10SM CLR 27/03 A3006 RMK AO2
 
KFLG - Flagstaff, Arizona, USA
Distance from station: N 105mi, 168km
Updated: Sat 17 Aug 2019 2057 MST
Clear
Clear
 Wind from SW
Wind: SW 5 mph , 7 km/h
Temperature: 64°F , 18°C
Dew Point: 34°F , 1°C
Humidity: 32%
Barometer: 30.22 inHg , 1023.4 hPa
Clouds: Clear
Visibility: 10 miles , 16 km
2019/08/18 03:57 KFLG 180357Z 22004KT 10SM CLR 18/01 A3022 RMK AO2 SLP124 T01780006
KRYN - Tucson/Ryan Field, Arizona, USA
Distance from station: SSE 114mi, 184km
Updated: Sat 17 Aug 2019 1945 MST
NOT Current
Clear
Clear
 Wind from SW
Wind: SW 8 mph , 13 km/h
Temperature: 93°F , 34°C
Dew Point: 48°F , 9°C
Humidity: 21%
Barometer: 29.86 inHg , 1011.2 hPa
Clouds: Clear
Visibility: 10 miles , 16 km
2019/08/18 02:45 KRYN 180245Z 23007KT 10SM CLR 34/09 A2986 RMK LAST
 
KCMR - Williams Clark, Arizona, USA
Distance from station: N 115mi, 185km
Updated: Sat 17 Aug 2019 2135 MST
Mostly cloudy
Mostly cloudy
 Wind from SW
Wind: SW 12 mph , 19 km/h
Temperature: 72°F , 22°C
Dew Point: 36°F , 2°C
Humidity: 27%
Barometer: 30.20 inHg , 1022.7 hPa
Clouds: Mostly cloudy
Visibility: 10 miles , 16 km
Cloud details: Mostly cloudy 3700 ft
Mostly cloudy 4500 ft
Mostly cloudy 5000 ft
2019/08/18 04:35 KCMR 180435Z AUTO 22010KT 10SM BKN037 BKN045 BKN050 22/02 A3020 RMK AO2 PWINO
KINW - Winslow, Arizona, USA
Distance from station: NE 121mi, 194km
Updated: Mon 12 Aug 2019 0956 MST
NOT Current
Few Clouds
Few Clouds
 Wind from WNW
Wind: WNW 10 mph , 17 km/h
Temperature: 84°F , 29°C
Dew Point: 52°F , 11°C
Humidity: 33%
Barometer: 30.24 inHg , 1024 hPa
Clouds: Few Clouds
Visibility: 10 miles , 16 km
Cloud details: Few Clouds 7000 ft
2019/08/12 16:56 KINW 121656Z AUTO 30009KT 10SM FEW070 29/11 A3024 RMK AO2 SLP154 T02940106
 
KTUS - Tucson, Arizona, USA
Distance from station: SSE 121mi, 195km
Updated: Sat 17 Aug 2019 2053 MST
Clear
Clear
 Wind from WNW
Wind: WNW 5 mph , 7 km/h
Temperature: 91°F , 33°C
Dew Point: 48°F , 9°C
Humidity: 23%
Barometer: 29.89 inHg , 1012.2 hPa
Clouds: Clear
Visibility: 10 miles , 16 km
2019/08/18 03:53 KTUS 180353Z 30004KT 10SM CLR 33/09 A2989 RMK AO2 SLP065 T03280089
KDMA - Davis AFB/Tucson, Arizona, USA
Distance from station: SE 122mi, 196km
Updated: Sat 17 Aug 2019 2058 MST
Clear
Clear
 Wind from WNW
Wind: WNW 5 mph , 7 km/h
Temperature: 90°F , 32°C
Dew Point: 50°F , 10°C
Humidity: 26%
Barometer: 29.88 inHg , 1011.9 hPa
Clouds: Clear
Visibility: 10 miles , 16 km
2019/08/18 03:58 KDMA 180358Z AUTO 29004KT 10SM CLR 32/10 A2988 RMK AO2 SLP069 T03210102 $
 
KSOW - Show Low Municipal, Arizona, USA
Distance from station: ENE 123mi, 198km
Updated: Sat 17 Aug 2019 2135 MST
Clear
Clear
 Wind from S
Wind: S 10 mph , 17 km/h
Temperature: 68°F , 20°C
Dew Point: 36°F , 2°C
Humidity: 30%
Barometer: 30.20 inHg , 1022.7 hPa
Clouds: Clear
Visibility: 10 miles , 16 km
2019/08/18 04:35 KSOW 180435Z AUTO 18009KT 10SM CLR 20/02 A3020 RMK AO2
KSAD - Safford, Arizona, USA
Distance from station: ESE 148mi, 238km
Updated: Sat 17 Aug 2019 2051 MST
Clear
Clear
 Wind from W
Wind: W 8 mph , 13 km/h
Temperature: 84°F , 29°C
Dew Point: 39°F , 4°C
Humidity: 20%
Barometer: 29.89 inHg , 1012.2 hPa
Clouds: Clear
Visibility: 10 miles , 16 km
2019/08/18 03:51 KSAD 180351Z AUTO 27007KT 10SM CLR 29/04 A2989 RMK AO2 SLP059 T02940039